sensor_id;sensor_type;location;lat;lon;timestamp;pressure;altitude;pressure_sealevel;temperature;humidity
31239;BME280;17871;31.584;74.450;2023-02-04T00:01:44;98659.31;;;16.58;79.73
31239;BME280;17871;31.584;74.450;2023-02-04T00:04:18;98661.03;;;16.59;79.76
31239;BME280;17871;31.584;74.450;2023-02-04T00:06:47;98658.44;;;16.59;79.53
31239;BME280;17871;31.584;74.450;2023-02-04T00:09:16;98660.22;;;16.53;79.52
31239;BME280;17871;31.584;74.450;2023-02-04T00:11:45;98664.59;;;16.46;80.13
31239;BME280;17871;31.584;74.450;2023-02-04T00:14:14;98668.06;;;16.42;80.23
31239;BME280;17871;31.584;74.450;2023-02-04T00:16:43;98678.38;;;16.42;79.95
31239;BME280;17871;31.584;74.450;2023-02-04T00:19:13;98680.16;;;16.37;80.51
31239;BME280;17871;31.584;74.450;2023-02-04T00:21:43;98679.28;;;16.37;80.32
31239;BME280;17871;31.584;74.450;2023-02-04T00:24:14;98674.94;;;16.40;80.08
31239;BME280;17871;31.584;74.450;2023-02-04T00:26:43;98679.28;;;16.37;80.00
31239;BME280;17871;31.584;74.450;2023-02-04T00:29:12;98681.13;;;16.27;80.25
31239;BME280;17871;31.584;74.450;2023-02-04T00:31:43;98675.06;;;16.31;80.16
31239;BME280;17871;31.584;74.450;2023-02-04T00:34:12;98680.25;;;16.28;80.17
31239;BME280;17871;31.584;74.450;2023-02-04T00:36:41;98678.50;;;16.30;79.82
31239;BME280;17871;31.584;74.450;2023-02-04T00:39:11;98675.16;;;16.25;80.37
31239;BME280;17871;31.584;74.450;2023-02-04T00:41:41;98681.13;;;16.27;79.89
31239;BME280;17871;31.584;74.450;2023-02-04T00:44:10;98686.25;;;16.32;79.68
31239;BME280;17871;31.584;74.450;2023-02-04T00:46:42;98679.31;;;16.35;79.71
31239;BME280;17871;31.584;74.450;2023-02-04T00:49:11;98675.03;;;16.34;79.68
31239;BME280;17871;31.584;74.450;2023-02-04T00:51:41;98671.56;;;16.37;79.93
31239;BME280;17871;31.584;74.450;2023-02-04T00:54:14;98669.97;;;16.25;80.51
31239;BME280;17871;31.584;74.450;2023-02-04T00:56:45;98670.06;;;16.19;80.54
31239;BME280;17871;31.584;74.450;2023-02-04T00:59:15;98676.16;;;16.12;80.71
31239;BME280;17871;31.584;74.450;2023-02-04T01:01:44;98671.84;;;16.11;81.22
31239;BME280;17871;31.584;74.450;2023-02-04T01:04:14;98668.47;;;16.06;80.99
31239;BME280;17871;31.584;74.450;2023-02-04T01:06:43;98668.53;;;16.00;81.17
31239;BME280;17871;31.584;74.450;2023-02-04T01:09:12;98673.75;;;15.97;81.44
31239;BME280;17871;31.584;74.450;2023-02-04T01:11:45;98672.03;;;15.96;81.99
31239;BME280;17871;31.584;74.450;2023-02-04T01:14:15;98672.09;;;15.88;82.34
31239;BME280;17871;31.584;74.450;2023-02-04T01:16:44;98669.59;;;15.78;82.75
31239;BME280;17871;31.584;74.450;2023-02-04T01:19:15;98672.22;;;15.75;83.04
31239;BME280;17871;31.584;74.450;2023-02-04T01:21:44;98669.69;;;15.69;83.02
31239;BME280;17871;31.584;74.450;2023-02-04T01:24:14;98665.41;;;15.68;83.10
31239;BME280;17871;31.584;74.450;2023-02-04T01:27:02;98671.41;;;15.70;83.12
31239;BME280;17871;31.584;74.450;2023-02-04T01:29:31;98673.97;;;15.68;83.61
31239;BME280;17871;31.584;74.450;2023-02-04T01:32:00;98676.69;;;15.57;83.78
31239;BME280;17871;31.584;74.450;2023-02-04T01:34:30;98681.81;;;15.59;83.73
31239;BME280;17871;31.584;74.450;2023-02-04T01:36:59;98693.00;;;15.56;83.58
31239;BME280;17871;31.584;74.450;2023-02-04T01:39:30;98701.59;;;15.54;84.13
31239;BME280;17871;31.584;74.450;2023-02-04T01:42:02;98700.78;;;15.50;84.24
31239;BME280;17871;31.584;74.450;2023-02-04T01:44:31;98704.19;;;15.48;84.00
31239;BME280;17871;31.584;74.450;2023-02-04T01:47:02;98716.22;;;15.44;84.24
31239;BME280;17871;31.584;74.450;2023-02-04T01:49:32;98718.78;;;15.44;84.43
31239;BME280;17871;31.584;74.450;2023-02-04T01:52:02;98719.66;;;15.46;84.33
31239;BME280;17871;31.584;74.450;2023-02-04T01:54:31;98722.22;;;15.46;84.30
31239;BME280;17871;31.584;74.450;2023-02-04T01:57:01;98723.06;;;15.47;84.37
31239;BME280;17871;31.584;74.450;2023-02-04T01:59:32;98734.22;;;15.44;84.70
31239;BME280;17871;31.584;74.450;2023-02-04T02:02:02;98742.88;;;15.40;84.74
31239;BME280;17871;31.584;74.450;2023-02-04T02:04:32;98735.94;;;15.45;84.50
31239;BME280;17871;31.584;74.450;2023-02-04T02:07:04;98740.25;;;15.51;84.90
31239;BME280;17871;31.584;74.450;2023-02-04T02:09:34;98741.13;;;15.44;84.67
31239;BME280;17871;31.584;74.450;2023-02-04T02:12:05;98745.41;;;15.51;84.17
31239;BME280;17871;31.584;74.450;2023-02-04T02:14:34;98735.91;;;15.61;83.82
31239;BME280;17871;31.584;74.450;2023-02-04T02:17:04;98746.22;;;15.57;84.16
31239;BME280;17871;31.584;74.450;2023-02-04T02:19:37;98742.66;;;15.72;83.90
31239;BME280;17871;31.584;74.450;2023-02-04T02:24:46;98761.66;;;15.61;84.04
31239;BME280;17871;31.584;74.450;2023-02-04T02:27:18;98754.78;;;15.60;84.41
31239;BME280;17871;31.584;74.450;2023-02-04T02:29:47;98746.16;;;15.64;84.99
31239;BME280;17871;31.584;74.450;2023-02-04T02:32:17;98753.00;;;15.65;84.84
31239;BME280;17871;31.584;74.450;2023-02-04T02:34:46;98759.03;;;15.65;84.68
31239;BME280;17871;31.584;74.450;2023-02-04T02:37:16;98765.88;;;15.71;84.41
31239;BME280;17871;31.584;74.450;2023-02-04T02:39:45;98766.72;;;15.73;84.02
31239;BME280;17871;31.584;74.450;2023-02-04T02:42:15;98780.38;;;15.84;83.81
31239;BME280;17871;31.584;74.450;2023-02-04T02:44:47;98775.16;;;15.88;83.40
31239;BME280;17871;31.584;74.450;2023-02-04T02:47:20;98773.34;;;16.01;83.53
31239;BME280;17871;31.584;74.450;2023-02-04T02:49:52;98770.72;;;16.05;82.81
31239;BME280;17871;31.584;74.450;2023-02-04T02:52:21;98766.50;;;15.98;82.56
31239;BME280;17871;31.584;74.450;2023-02-04T02:54:50;98774.09;;;16.10;81.94
31239;BME280;17871;31.584;74.450;2023-02-04T02:57:22;98778.31;;;16.22;81.58
31239;BME280;17871;31.584;74.450;2023-02-04T02:59:52;98778.34;;;16.19;81.45
31239;BME280;17871;31.584;74.450;2023-02-04T03:02:23;98785.03;;;16.38;81.96
31239;BME280;17871;31.584;74.450;2023-02-04T03:04:55;98790.16;;;16.41;81.63
31239;BME280;17871;31.584;74.450;2023-02-04T03:07:30;98792.78;;;16.38;80.80
31239;BME280;17871;31.584;74.450;2023-02-04T03:10:00;98797.94;;;16.40;80.23
31239;BME280;17871;31.584;74.450;2023-02-04T03:12:30;98807.28;;;16.48;80.06
31239;BME280;17871;31.584;74.450;2023-02-04T03:15:00;98808.06;;;16.61;79.45
31239;BME280;17871;31.584;74.450;2023-02-04T03:17:31;98813.22;;;16.61;79.67
31239;BME280;17871;31.584;74.450;2023-02-04T03:20:01;98810.59;;;16.66;79.50
31239;BME280;17871;31.584;74.450;2023-02-04T03:22:30;98814.00;;;16.68;79.14
31239;BME280;17871;31.584;74.450;2023-02-04T03:25:00;98810.50;;;16.75;78.40
31239;BME280;17871;31.584;74.450;2023-02-04T03:27:30;98818.16;;;16.82;77.84
31239;BME280;17871;31.584;74.450;2023-02-04T03:29:59;98811.28;;;16.81;77.92
31239;BME280;17871;31.584;74.450;2023-02-04T03:32:28;98812.88;;;16.90;77.10
31239;BME280;17871;31.584;74.450;2023-02-04T03:34:58;98817.03;;;17.03;76.45
31239;BME280;17871;31.584;74.450;2023-02-04T03:37:27;98825.56;;;17.11;76.25
31239;BME280;17871;31.584;74.450;2023-02-04T03:39:59;98831.50;;;17.16;75.94
31239;BME280;17871;31.584;74.450;2023-02-04T03:42:28;98831.41;;;17.24;74.90
31239;BME280;17871;31.584;74.450;2023-02-04T03:44:57;98830.56;;;17.23;74.00
31239;BME280;17871;31.584;74.450;2023-02-04T03:47:26;98834.59;;;17.44;73.54
31239;BME280;17871;31.584;74.450;2023-02-04T03:49:57;98834.47;;;17.53;73.35
31239;BME280;17871;31.584;74.450;2023-02-04T03:52:26;98841.34;;;17.57;72.45
31239;BME280;17871;31.584;74.450;2023-02-04T03:54:55;98839.44;;;17.70;71.53
31239;BME280;17871;31.584;74.450;2023-02-04T03:57:25;98845.44;;;17.72;70.67
31239;BME280;17871;31.584;74.450;2023-02-04T03:59:54;98847.00;;;17.82;68.28
31239;BME280;17871;31.584;74.450;2023-02-04T04:02:25;98857.16;;;17.95;67.75
31239;BME280;17871;31.584;74.450;2023-02-04T04:04:56;98859.56;;;18.07;67.21
31239;BME280;17871;31.584;74.450;2023-02-04T04:07:25;98855.22;;;18.11;66.11
31239;BME280;17871;31.584;74.450;2023-02-04T04:09:55;98857.75;;;18.12;65.98
31239;BME280;17871;31.584;74.450;2023-02-04T04:12:24;98858.50;;;18.19;63.63
31239;BME280;17871;31.584;74.450;2023-02-04T04:14:54;98857.44;;;18.34;62.00
31239;BME280;17871;31.584;74.450;2023-02-04T04:17:22;98865.88;;;18.43;62.12
31239;BME280;17871;31.584;74.450;2023-02-04T04:19:52;98861.38;;;18.56;62.33
31239;BME280;17871;31.584;74.450;2023-02-04T04:22:21;98864.72;;;18.62;61.30
31239;BME280;17871;31.584;74.450;2023-02-04T04:24:50;98865.66;;;18.58;61.86
31239;BME280;17871;31.584;74.450;2023-02-04T04:27:19;98871.44;;;18.73;61.42
31239;BME280;17871;31.584;74.450;2023-02-04T04:29:49;98874.78;;;18.78;61.83
31239;BME280;17871;31.584;74.450;2023-02-04T04:32:18;98875.53;;;18.84;60.59
31239;BME280;17871;31.584;74.450;2023-02-04T04:34:47;98881.38;;;18.94;59.13
31239;BME280;17871;31.584;74.450;2023-02-04T04:37:17;98879.34;;;19.11;58.55
31239;BME280;17871;31.584;74.450;2023-02-04T04:39:49;98888.72;;;19.18;57.52
31239;BME280;17871;31.584;74.450;2023-02-04T04:42:18;98893.09;;;19.16;58.25
31239;BME280;17871;31.584;74.450;2023-02-04T04:44:47;98897.22;;;19.25;58.48
31239;BME280;17871;31.584;74.450;2023-02-04T04:47:16;98898.81;;;19.32;58.69
31239;BME280;17871;31.584;74.450;2023-02-04T04:49:45;98898.19;;;19.19;58.63
31239;BME280;17871;31.584;74.450;2023-02-04T04:52:15;98897.72;;;19.43;58.76
31239;BME280;17871;31.584;74.450;2023-02-04T04:54:44;98903.72;;;19.47;57.83
31239;BME280;17871;31.584;74.450;2023-02-04T04:57:14;98895.84;;;19.51;57.86
31239;BME280;17871;31.584;74.450;2023-02-04T04:59:48;98906.91;;;19.59;58.08
31239;BME280;17871;31.584;74.450;2023-02-04T05:02:21;98910.03;;;19.75;58.47
31239;BME280;17871;31.584;74.450;2023-02-04T05:04:50;98900.25;;;19.88;58.00
31239;BME280;17871;31.584;74.450;2023-02-04T05:07:19;98905.28;;;19.95;57.96
31239;BME280;17871;31.584;74.450;2023-02-04T05:09:49;98914.66;;;20.01;57.01
31239;BME280;17871;31.584;74.450;2023-02-04T05:12:18;98910.28;;;20.03;56.68
31239;BME280;17871;31.584;74.450;2023-02-04T05:14:47;98923.16;;;20.06;56.92
31239;BME280;17871;31.584;74.450;2023-02-04T05:17:18;98917.03;;;20.10;56.77
31239;BME280;17871;31.584;74.450;2023-02-04T05:19:47;98915.44;;;20.04;57.73
31239;BME280;17871;31.584;74.450;2023-02-04T05:22:16;98928.06;;;20.19;58.17
31239;BME280;17871;31.584;74.450;2023-02-04T05:24:46;98921.91;;;20.25;58.14
31239;BME280;17871;31.584;74.450;2023-02-04T05:27:17;98922.66;;;20.30;57.33
31239;BME280;17871;31.584;74.450;2023-02-04T05:29:46;98924.16;;;20.40;56.38
31239;BME280;17871;31.584;74.450;2023-02-04T05:32:15;98920.19;;;20.61;56.40
31239;BME280;17871;31.584;74.450;2023-02-04T05:34:44;98919.25;;;20.63;56.27
31239;BME280;17871;31.584;74.450;2023-02-04T05:37:13;98925.91;;;20.74;55.65
31239;BME280;17871;31.584;74.450;2023-02-04T05:39:45;98921.44;;;20.79;55.48
31239;BME280;17871;31.584;74.450;2023-02-04T05:42:15;98925.53;;;20.89;54.82
31239;BME280;17871;31.584;74.450;2023-02-04T05:44:44;98924.38;;;21.00;54.57
31239;BME280;17871;31.584;74.450;2023-02-04T05:47:14;98925.13;;;21.04;52.46
31239;BME280;17871;31.584;74.450;2023-02-04T05:49:43;98931.13;;;21.07;51.99
31239;BME280;17871;31.584;74.450;2023-02-04T05:52:12;98916.16;;;21.17;51.95
31239;BME280;17871;31.584;74.450;2023-02-04T05:54:41;98913.09;;;21.34;52.37
31239;BME280;17871;31.584;74.450;2023-02-04T05:57:11;98907.94;;;21.31;52.49
31239;BME280;17871;31.584;74.450;2023-02-04T05:59:40;98911.28;;;21.36;52.04
31239;BME280;17871;31.584;74.450;2023-02-04T06:02:09;98910.25;;;21.41;52.54
31239;BME280;17871;31.584;74.450;2023-02-04T06:04:38;98900.31;;;21.55;52.30
31239;BME280;17871;31.584;74.450;2023-02-04T06:07:10;98893.28;;;21.59;52.17
31239;BME280;17871;31.584;74.450;2023-02-04T06:09:41;98895.59;;;21.69;51.81
31239;BME280;17871;31.584;74.450;2023-02-04T06:12:11;98880.44;;;21.82;52.03
31239;BME280;17871;31.584;74.450;2023-02-04T06:14:41;98881.56;;;21.73;50.26
31239;BME280;17871;31.584;74.450;2023-02-04T06:17:10;98878.06;;;21.74;50.30
31239;BME280;17871;31.584;74.450;2023-02-04T06:19:42;98872.47;;;21.87;50.22
31239;BME280;17871;31.584;74.450;2023-02-04T06:22:11;98870.16;;;22.07;50.22
31239;BME280;17871;31.584;74.450;2023-02-04T06:24:40;98863.97;;;22.11;49.50
31239;BME280;17871;31.584;74.450;2023-02-04T06:27:09;98866.38;;;22.17;48.76
31239;BME280;17871;31.584;74.450;2023-02-04T06:29:39;98857.13;;;22.35;49.69
31239;BME280;17871;31.584;74.450;2023-02-04T06:32:11;98850.06;;;22.38;48.87
31239;BME280;17871;31.584;74.450;2023-02-04T06:34:40;98847.13;;;22.47;49.55
31239;BME280;17871;31.584;74.450;2023-02-04T06:37:09;98850.84;;;22.66;48.80
31239;BME280;17871;31.584;74.450;2023-02-04T06:39:39;98851.72;;;22.67;47.78
31239;BME280;17871;31.584;74.450;2023-02-04T06:42:08;98840.44;;;22.66;48.16
31239;BME280;17871;31.584;74.450;2023-02-04T06:44:37;98847.25;;;22.70;47.73
31239;BME280;17871;31.584;74.450;2023-02-04T06:47:06;98842.94;;;22.69;47.42
31239;BME280;17871;31.584;74.450;2023-02-04T06:49:36;98833.78;;;22.56;46.30
31239;BME280;17871;31.584;74.450;2023-02-04T06:52:05;98834.38;;;22.66;46.43
31239;BME280;17871;31.584;74.450;2023-02-04T06:54:34;98832.88;;;22.84;46.63
31239;BME280;17871;31.584;74.450;2023-02-04T06:57:03;98828.25;;;22.92;46.89
31239;BME280;17871;31.584;74.450;2023-02-04T06:59:36;98822.72;;;23.24;46.67
31239;BME280;17871;31.584;74.450;2023-02-04T07:02:07;98829.06;;;23.17;46.93
31239;BME280;17871;31.584;74.450;2023-02-04T07:04:36;98824.00;;;23.12;46.83
31239;BME280;17871;31.584;74.450;2023-02-04T07:07:05;98820.13;;;23.24;46.72
31239;BME280;17871;31.584;74.450;2023-02-04T07:09:34;98813.16;;;23.24;46.24
31239;BME280;17871;31.584;74.450;2023-02-04T07:12:04;98805.88;;;23.33;46.44
31239;BME280;17871;31.584;74.450;2023-02-04T07:14:33;98813.81;;;23.30;47.32
31239;BME280;17871;31.584;74.450;2023-02-04T07:17:02;98808.56;;;23.31;46.85
31239;BME280;17871;31.584;74.450;2023-02-04T07:19:32;98804.59;;;23.44;46.84
31239;BME280;17871;31.584;74.450;2023-02-04T07:22:05;98799.81;;;23.32;45.74
31239;BME280;17871;31.584;74.450;2023-02-04T07:24:34;98798.13;;;23.31;45.99
31239;BME280;17871;31.584;74.450;2023-02-04T07:27:03;98794.47;;;23.35;44.94
31239;BME280;17871;31.584;74.450;2023-02-04T07:29:32;98790.75;;;23.42;45.30
31239;BME280;17871;31.584;74.450;2023-02-04T07:32:01;98781.00;;;23.47;45.06
31239;BME280;17871;31.584;74.450;2023-02-04T07:34:30;98774.84;;;23.48;45.54
31239;BME280;17871;31.584;74.450;2023-02-04T07:37:05;98767.22;;;23.65;46.36
31239;BME280;17871;31.584;74.450;2023-02-04T07:39:34;98769.06;;;23.63;45.03
31239;BME280;17871;31.584;74.450;2023-02-04T07:42:03;98754.06;;;23.68;45.35
31239;BME280;17871;31.584;74.450;2023-02-04T07:44:42;98762.25;;;23.59;44.68
31239;BME280;17871;31.584;74.450;2023-02-04T07:47:12;98754.13;;;23.67;44.44
31239;BME280;17871;31.584;74.450;2023-02-04T07:49:41;98744.94;;;23.78;44.48
31239;BME280;17871;31.584;74.450;2023-02-04T07:52:11;98739.44;;;23.86;44.74
31239;BME280;17871;31.584;74.450;2023-02-04T07:54:41;98738.66;;;23.84;44.45
31239;BME280;17871;31.584;74.450;2023-02-04T07:57:10;98739.59;;;24.03;43.92
31239;BME280;17871;31.584;74.450;2023-02-04T07:59:39;98735.00;;;24.08;43.45
31239;BME280;17871;31.584;74.450;2023-02-04T08:02:09;98736.00;;;24.06;44.13
31239;BME280;17871;31.584;74.450;2023-02-04T08:04:39;98722.66;;;24.13;44.33
31239;BME280;17871;31.584;74.450;2023-02-04T08:07:08;98718.97;;;24.17;45.06
31239;BME280;17871;31.584;74.450;2023-02-04T08:09:37;98718.16;;;24.17;43.60
31239;BME280;17871;31.584;74.450;2023-02-04T08:12:06;98713.75;;;24.17;44.40
31239;BME280;17871;31.584;74.450;2023-02-04T08:14:36;98699.75;;;24.20;43.37
31239;BME280;17871;31.584;74.450;2023-02-04T08:17:05;98690.50;;;24.11;44.31
31239;BME280;17871;31.584;74.450;2023-02-04T08:19:35;98683.72;;;24.27;44.71
31239;BME280;17871;31.584;74.450;2023-02-04T08:22:04;98681.69;;;24.34;44.27
31239;BME280;17871;31.584;74.450;2023-02-04T08:24:33;98686.16;;;24.32;44.56
31239;BME280;17871;31.584;74.450;2023-02-04T08:27:02;98677.53;;;24.30;42.70
31239;BME280;17871;31.584;74.450;2023-02-04T08:29:32;98671.63;;;24.45;43.67
31239;BME280;17871;31.584;74.450;2023-02-04T08:32:01;98667.44;;;24.41;42.98
31239;BME280;17871;31.584;74.450;2023-02-04T08:34:30;98662.63;;;24.32;42.32
31239;BME280;17871;31.584;74.450;2023-02-04T08:37:04;98662.75;;;24.49;42.60
31239;BME280;17871;31.584;74.450;2023-02-04T08:39:36;98653.72;;;24.56;41.79
31239;BME280;17871;31.584;74.450;2023-02-04T08:42:09;98655.94;;;24.45;42.77
31239;BME280;17871;31.584;74.450;2023-02-04T08:44:38;98649.19;;;24.60;43.39
31239;BME280;17871;31.584;74.450;2023-02-04T08:47:08;98645.44;;;24.65;43.52
31239;BME280;17871;31.584;74.450;2023-02-04T08:49:37;98636.97;;;24.60;42.28
31239;BME280;17871;31.584;74.450;2023-02-04T08:52:07;98639.78;;;24.56;42.51
31239;BME280;17871;31.584;74.450;2023-02-04T08:54:37;98630.06;;;24.59;42.09
31239;BME280;17871;31.584;74.450;2023-02-04T08:57:05;98635.97;;;24.44;41.60
31239;BME280;17871;31.584;74.450;2023-02-04T08:59:43;98631.25;;;24.71;41.82
31239;BME280;17871;31.584;74.450;2023-02-04T09:02:16;98624.03;;;24.57;42.37
31239;BME280;17871;31.584;74.450;2023-02-04T09:04:45;98629.06;;;24.62;42.45
31239;BME280;17871;31.584;74.450;2023-02-04T09:07:14;98622.69;;;24.49;41.81
31239;BME280;17871;31.584;74.450;2023-02-04T09:09:44;98624.88;;;24.58;41.94
31239;BME280;17871;31.584;74.450;2023-02-04T09:12:13;98621.69;;;24.51;42.58
31239;BME280;17871;31.584;74.450;2023-02-04T09:14:42;98616.13;;;24.59;41.94
31239;BME280;17871;31.584;74.450;2023-02-04T09:17:11;98616.00;;;24.62;42.09
31239;BME280;17871;31.584;74.450;2023-02-04T09:19:40;98620.50;;;24.58;42.01
31239;BME280;17871;31.584;74.450;2023-02-04T09:22:09;98619.88;;;24.53;42.00
31239;BME280;17871;31.584;74.450;2023-02-04T09:24:40;98609.00;;;24.62;41.14
31239;BME280;17871;31.584;74.450;2023-02-04T09:27:09;98614.28;;;24.61;43.01
31239;BME280;17871;31.584;74.450;2023-02-04T09:29:39;98609.28;;;24.56;42.88
31239;BME280;17871;31.584;74.450;2023-02-04T09:32:08;98609.19;;;24.58;41.99
31239;BME280;17871;31.584;74.450;2023-02-04T09:34:37;98611.06;;;24.56;41.79
31239;BME280;17871;31.584;74.450;2023-02-04T09:37:06;98606.09;;;24.50;41.83
31239;BME280;17871;31.584;74.450;2023-02-04T09:39:36;98612.97;;;24.52;41.25
31239;BME280;17871;31.584;74.450;2023-02-04T09:42:05;98601.16;;;24.62;41.64
31239;BME280;17871;31.584;74.450;2023-02-04T09:44:34;98604.53;;;24.64;40.87
31239;BME280;17871;31.584;74.450;2023-02-04T09:47:03;98601.94;;;24.64;40.46
31239;BME280;17871;31.584;74.450;2023-02-04T09:49:33;98604.53;;;24.64;41.37
31239;BME280;17871;31.584;74.450;2023-02-04T09:52:02;98597.41;;;24.68;41.85
31239;BME280;17871;31.584;74.450;2023-02-04T09:54:32;98595.34;;;24.74;42.51
31239;BME280;17871;31.584;74.450;2023-02-04T09:57:17;98595.59;;;24.89;43.29
31239;BME280;17871;31.584;74.450;2023-02-04T09:59:48;98596.00;;;24.79;44.47
31239;BME280;17871;31.584;74.450;2023-02-04T10:02:25;98595.81;;;24.84;44.64
31239;BME280;17871;31.584;74.450;2023-02-04T10:04:56;98587.47;;;24.76;43.56
31239;BME280;17871;31.584;74.450;2023-02-04T10:07:26;98588.28;;;24.76;43.92
31239;BME280;17871;31.584;74.450;2023-02-04T10:09:56;98587.66;;;24.71;43.54
31239;BME280;17871;31.584;74.450;2023-02-04T10:12:26;98586.19;;;24.66;43.13
31239;BME280;17871;31.584;74.450;2023-02-04T10:14:55;98580.88;;;24.67;43.62
31239;BME280;17871;31.584;74.450;2023-02-04T10:17:24;98578.75;;;24.75;43.61
31239;BME280;17871;31.584;74.450;2023-02-04T10:19:53;98578.13;;;24.70;43.12
31239;BME280;17871;31.584;74.450;2023-02-04T10:22:22;98580.13;;;24.65;43.53
31239;BME280;17871;31.584;74.450;2023-02-04T10:24:52;98575.94;;;24.61;43.44
31239;BME280;17871;31.584;74.450;2023-02-04T10:27:21;98574.03;;;24.65;43.61
31239;BME280;17871;31.584;74.450;2023-02-04T10:29:57;98574.44;;;24.93;43.46
31239;BME280;17871;31.584;74.450;2023-02-04T10:32:29;98565.19;;;24.67;44.33
31239;BME280;17871;31.584;74.450;2023-02-04T10:35:00;98570.25;;;24.53;43.93
31239;BME280;17871;31.584;74.450;2023-02-04T10:37:30;98572.28;;;24.65;42.00
31239;BME280;17871;31.584;74.450;2023-02-04T10:39:59;98564.44;;;24.65;41.94
31239;BME280;17871;31.584;74.450;2023-02-04T10:42:29;98569.22;;;24.74;42.68
31239;BME280;17871;31.584;74.450;2023-02-04T10:44:59;98562.53;;;24.69;42.50
31239;BME280;17871;31.584;74.450;2023-02-04T10:47:29;98566.25;;;24.63;40.96
31239;BME280;17871;31.584;74.450;2023-02-04T10:50:06;98560.47;;;24.75;42.86
31239;BME280;17871;31.584;74.450;2023-02-04T10:52:46;98556.75;;;24.62;43.50
31239;BME280;17871;31.584;74.450;2023-02-04T10:55:19;98562.31;;;24.55;42.54
31239;BME280;17871;31.584;74.450;2023-02-04T10:57:51;98553.97;;;24.65;42.67
31239;BME280;17871;31.584;74.450;2023-02-04T11:00:24;98557.75;;;24.77;41.80
31239;BME280;17871;31.584;74.450;2023-02-04T11:03:02;98550.22;;;24.71;40.06
31239;BME280;17871;31.584;74.450;2023-02-04T11:05:34;98552.41;;;24.61;39.83
31239;BME280;17871;31.584;74.450;2023-02-04T11:11:07;98556.25;;;24.73;39.92
31239;BME280;17871;31.584;74.450;2023-02-04T11:21:28;98557.56;;;24.44;40.92
31239;BME280;17871;31.584;74.450;2023-02-04T11:26:47;98552.56;;;24.58;39.77
31239;BME280;17871;31.584;74.450;2023-02-04T11:29:32;98548.41;;;24.54;38.18
31239;BME280;17871;31.584;74.450;2023-02-04T11:32:29;98547.03;;;24.64;37.94
31239;BME280;17871;31.584;74.450;2023-02-04T11:35:21;98556.78;;;24.61;37.94
31239;BME280;17871;31.584;74.450;2023-02-04T11:37:54;98557.09;;;24.36;38.23
31239;BME280;17871;31.584;74.450;2023-02-04T11:40:33;98554.97;;;24.25;38.04
31239;BME280;17871;31.584;74.450;2023-02-04T11:43:11;98547.13;;;24.44;37.54
31239;BME280;17871;31.584;74.450;2023-02-04T11:45:42;98554.88;;;24.27;37.46
31239;BME280;17871;31.584;74.450;2023-02-04T11:48:17;98557.50;;;24.27;37.72
31239;BME280;17871;31.584;74.450;2023-02-04T11:50:56;98551.59;;;24.42;37.51
31239;BME280;17871;31.584;74.450;2023-02-04T11:53:32;98555.25;;;24.38;38.36
31239;BME280;17871;31.584;74.450;2023-02-04T11:56:02;98560.84;;;24.10;38.45
31239;BME280;17871;31.584;74.450;2023-02-04T11:58:32;98559.22;;;24.08;38.41
31239;BME280;17871;31.584;74.450;2023-02-04T12:01:01;98555.75;;;24.07;38.16
31239;BME280;17871;31.584;74.450;2023-02-04T12:03:32;98552.38;;;24.05;38.35
31239;BME280;17871;31.584;74.450;2023-02-04T12:06:02;98554.00;;;23.88;38.67
31239;BME280;17871;31.584;74.450;2023-02-04T12:08:34;98549.69;;;24.07;38.96
31239;BME280;17871;31.584;74.450;2023-02-04T12:11:25;98552.69;;;24.18;39.40
31239;BME280;17871;31.584;74.450;2023-02-04T12:13:57;98551.94;;;23.96;40.32
31239;BME280;17871;31.584;74.450;2023-02-04T12:16:27;98560.38;;;23.82;41.04
31239;BME280;17871;31.584;74.450;2023-02-04T12:18:56;98554.28;;;23.82;41.88
31239;BME280;17871;31.584;74.450;2023-02-04T12:21:25;98555.59;;;23.71;41.83
31239;BME280;17871;31.584;74.450;2023-02-04T12:23:54;98553.78;;;23.53;44.13
31239;BME280;17871;31.584;74.450;2023-02-04T12:26:23;98557.56;;;23.46;44.26
31239;BME280;17871;31.584;74.450;2023-02-04T12:28:52;98547.88;;;23.28;46.47
31239;BME280;17871;31.584;74.450;2023-02-04T12:31:22;98554.66;;;23.32;46.89
31239;BME280;17871;31.584;74.450;2023-02-04T12:33:51;98556.03;;;23.20;47.91
31239;BME280;17871;31.584;74.450;2023-02-04T12:36:21;98557.34;;;23.09;48.53
31239;BME280;17871;31.584;74.450;2023-02-04T12:38:50;98558.53;;;23.02;48.52
31239;BME280;17871;31.584;74.450;2023-02-04T12:43:48;98558.72;;;22.97;48.51
31239;BME280;17871;31.584;74.450;2023-02-04T12:46:18;98560.63;;;22.92;48.54
31239;BME280;17871;31.584;74.450;2023-02-04T12:48:47;98562.41;;;22.92;48.40
31239;BME280;17871;31.584;74.450;2023-02-04T12:51:16;98558.28;;;22.86;48.52
31239;BME280;17871;31.584;74.450;2023-02-04T12:53:46;98564.84;;;22.74;48.72
31239;BME280;17871;31.584;74.450;2023-02-04T12:56:15;98571.28;;;22.64;48.64
31239;BME280;17871;31.584;74.450;2023-02-04T12:58:47;98570.41;;;22.64;48.59
31239;BME280;17871;31.584;74.450;2023-02-04T13:01:17;98573.44;;;22.53;48.54
31239;BME280;17871;31.584;74.450;2023-02-04T13:03:46;98569.31;;;22.48;48.37
31239;BME280;17871;31.584;74.450;2023-02-04T13:06:15;98577.03;;;22.49;48.52
31239;BME280;17871;31.584;74.450;2023-02-04T13:08:45;98580.06;;;22.39;48.77
31239;BME280;17871;31.584;74.450;2023-02-04T13:11:14;98580.94;;;22.39;49.04
31239;BME280;17871;31.584;74.450;2023-02-04T13:13:43;98589.63;;;22.38;48.99
31239;BME280;17871;31.584;74.450;2023-02-04T13:16:15;98584.66;;;22.32;49.59
31239;BME280;17871;31.584;74.450;2023-02-04T13:18:46;98584.78;;;22.29;49.72
31239;BME280;17871;31.584;74.450;2023-02-04T13:21:16;98589.28;;;22.24;50.31
31239;BME280;17871;31.584;74.450;2023-02-04T13:23:46;98586.56;;;22.27;50.46
31239;BME280;17871;31.584;74.450;2023-02-04T13:26:15;98577.25;;;22.21;50.78